Accueil
METAR-TAF:

METAR-TAF

Aéroports :

Aéroport de Bordeaux-Mérignac

Bordeaux, France

latitude: 44-50N, longitude: 000-42W, altitude: 49 m

Observation

Le bulletin a été fait il y a 44 minutes, à 02:00 UTC
Vent 5 kt de nord
Température 5°C
Humidité 60%
Pression 1024 hPa
Visibilité 10 km ou plus
pas de nuages en-dessous de 1500 mètres et pas de cumulonimbus.

METAR: LFBD 170200Z AUTO 01005KT CAVOK 05/M02 Q1024 NOSIG

Heure: 04:44 (02:44 UTC)

Prévision

Le bulletin a été fait il y a 3 heures et 44 minutes, à 23:00 UTC
Prévision valable du 17 à 00 UTC au 18 à 06 UTC
Vent 5 kt de nord
Visibilité 10 km ou plus
pas de nuages en-dessous de 1500 mètres et pas de cumulonimbus.
Temporairement
du 17 à 12 UTC au 17 à 17 UTC
Vent 12 kt de nord/nord-est avec des rafales jusqu'à 22 kt

TAF: LFBD 162300Z 1700/1806 01005KT CAVOK TX16/1714Z TN03/1705Z TEMPO 1712/1717 03012G22KT

Observations et prévisions météorologiques de plus de 4000 aéroports (messages METAR et TAF).

Les stations disponibles sont représentées par des disques jaunes et rouges sur la carte.

Passer la souris dessus pour voir le nom de la station.

Cliquer dessus pour voir les observations et prévisions météorologiques.

Pour changer de carte: cliquez sur les boutons verts avec une croix noire pour zoomer, sur le bouton vert avec un tiret pour effectuer un zoom arrière, ou sur les flèches vertes pour les cartes adjacentes.


METAR-TAF: